Time;durP1;ratioP1;P1;durP2;ratioP2;P2;SDS_P1;SDS_P2;PMS_P1;PMS_P2;Temp;Humidity;BMP_temperature;BMP_pressure;BME280_temperature;BME280_humidity;BME280_pressure;Samples;Min_cycle;Max_cycle;Signal;HPM_P1;HPM_P2
2023/03/13 00:01:39;;;;;;;23.38;5.07;;;8.80;99.90;;;;;;5113441;28;20056;-64
2023/03/13 00:04:06;;;;;;;22.42;5.25;;;8.70;99.90;;;;;;5114483;28;20112;-64
2023/03/13 00:06:34;;;;;;;26.23;4.90;;;8.60;99.90;;;;;;5114059;28;20047;-64
2023/03/13 00:09:02;;;;;;;21.77;5.50;;;8.70;99.90;;;;;;5112023;28;20050;-64
2023/03/13 00:11:29;;;;;;;30.42;6.65;;;8.70;99.90;;;;;;5114435;28;20050;-65
2023/03/13 00:13:59;;;;;;;26.92;5.85;;;8.60;99.90;;;;;;5112921;28;20047;-64
2023/03/13 00:16:27;;;;;;;23.25;5.72;;;8.60;99.90;;;;;;5114894;28;20463;-65
2023/03/13 00:18:55;;;;;;;25.45;6.40;;;8.60;99.90;;;;;;5113508;28;20051;-64
2023/03/13 00:21:24;;;;;;;21.88;6.07;;;8.50;99.90;;;;;;5112092;28;20415;-64
2023/03/13 00:23:51;;;;;;;22.60;5.40;;;8.50;99.90;;;;;;5114338;27;20088;-64
2023/03/13 00:26:21;;;;;;;24.83;6.85;;;8.50;99.90;;;;;;5112706;28;20529;-64
2023/03/13 00:28:49;;;;;;;27.23;5.87;;;8.50;99.90;;;;;;5113839;28;20051;-64
2023/03/13 00:31:20;;;;;;;30.08;6.63;;;8.50;99.90;;;;;;5114155;28;20043;-64
2023/03/13 00:33:48;;;;;;;24.02;6.53;;;8.40;99.90;;;;;;5144602;27;20043;-64
2023/03/13 00:36:17;;;;;;;27.05;6.38;;;8.40;99.90;;;;;;5112973;28;20085;-64
2023/03/13 00:38:45;;;;;;;26.23;6.82;;;8.40;99.90;;;;;;5113988;28;20442;-64
2023/03/13 00:41:14;;;;;;;22.05;6.25;;;8.50;99.90;;;;;;5111286;28;20384;-65
2023/03/13 00:43:43;;;;;;;27.52;5.93;;;8.40;99.90;;;;;;5112782;28;20096;-64
2023/03/13 00:46:11;;;;;;;22.42;6.03;;;8.40;99.90;;;;;;5113813;28;20048;-65
2023/03/13 00:48:39;;;;;;;21.95;6.10;;;8.30;99.90;;;;;;5113127;28;20060;-64
2023/03/13 00:51:07;;;;;;;24.23;6.68;;;8.40;99.90;;;;;;5112845;28;20101;-64
2023/03/13 00:53:34;;;;;;;24.88;7.10;;;8.40;99.90;;;;;;5112374;28;20348;-64
2023/03/13 00:56:03;;;;;;;23.80;6.85;;;8.40;99.90;;;;;;5112135;28;20112;-64
2023/03/13 00:58:33;;;;;;;23.30;8.02;;;8.40;99.90;;;;;;5111333;28;20044;-64
2023/03/13 01:01:08;;;;;;;23.10;6.88;;;8.40;99.90;;;;;;5112463;28;20051;-64
2023/03/13 01:03:35;;;;;;;31.00;7.32;;;8.40;99.90;;;;;;5111897;28;20470;-64
2023/03/13 01:06:06;;;;;;;26.08;6.95;;;8.40;99.90;;;;;;5113404;28;20047;-64
2023/03/13 01:08:33;;;;;;;26.88;7.85;;;8.40;99.90;;;;;;5112745;28;20092;-65
2023/03/13 01:11:01;;;;;;;24.35;6.32;;;8.40;99.90;;;;;;5112249;28;20452;-64
2023/03/13 01:13:30;;;;;;;27.80;7.25;;;8.40;99.90;;;;;;5111984;28;20048;-65
2023/03/13 01:15:56;;;;;;;23.75;6.70;;;8.40;99.90;;;;;;5112894;28;20127;-64
2023/03/13 01:18:23;;;;;;;24.00;7.25;;;8.50;99.90;;;;;;5112994;28;20036;-64
2023/03/13 01:20:50;;;;;;;22.58;6.22;;;8.50;99.90;;;;;;5109483;28;20056;-65
2023/03/13 01:23:19;;;;;;;27.17;6.47;;;8.50;99.90;;;;;;5112470;28;20039;-63
2023/03/13 01:25:45;;;;;;;31.05;7.72;;;8.50;99.90;;;;;;5112030;28;20062;-63
2023/03/13 01:28:12;;;;;;;24.73;5.72;;;8.50;99.90;;;;;;5112960;28;20039;-64
2023/03/13 01:30:39;;;;;;;21.75;7.03;;;8.50;99.90;;;;;;5112441;28;20055;-64
2023/03/13 01:33:06;;;;;;;18.40;6.55;;;8.50;99.90;;;;;;5112764;28;20044;-64
2023/03/13 01:35:33;;;;;;;30.50;8.27;;;8.50;99.90;;;;;;5113011;28;20048;-64
2023/03/13 01:38:00;;;;;;;24.27;6.97;;;8.50;99.90;;;;;;5110796;28;20043;-64
2023/03/13 01:40:28;;;;;;;22.20;6.65;;;8.50;99.90;;;;;;5111945;28;20059;-64
2023/03/13 01:42:57;;;;;;;20.48;6.65;;;8.50;99.90;;;;;;5111164;28;20047;-64
2023/03/13 01:45:53;;;;;;;26.67;6.97;;;8.50;99.90;;;;;;5112436;28;20422;-64
2023/03/13 01:48:22;;;;;;;24.48;7.38;;;8.50;99.90;;;;;;5112589;28;20464;-64
2023/03/13 01:50:48;;;;;;;26.08;7.68;;;8.50;99.90;;;;;;5112163;28;20460;-64
2023/03/13 01:53:15;;;;;;;25.98;6.55;;;8.50;99.90;;;;;;5112736;28;20055;-64
2023/03/13 01:55:44;;;;;;;26.17;7.13;;;8.50;99.90;;;;;;5112919;28;20051;-65
2023/03/13 01:58:11;;;;;;;26.75;7.10;;;8.50;99.90;;;;;;5111818;28;20039;-64
2023/03/13 02:00:41;;;;;;;27.65;7.93;;;8.50;99.90;;;;;;5112714;28;20446;-64
2023/03/13 02:03:14;;;;;;;24.08;6.75;;;8.50;99.90;;;;;;5112543;28;20502;-64
2023/03/13 02:05:43;;;;;;;27.45;7.43;;;8.60;99.90;;;;;;5111819;28;20507;-64
2023/03/13 02:08:17;;;;;;;22.83;6.78;;;8.50;99.90;;;;;;5112133;28;20054;-64
2023/03/13 02:10:51;;;;;;;21.88;6.38;;;8.50;99.90;;;;;;5111382;28;20507;-64
2023/03/13 02:13:19;;;;;;;23.25;7.25;;;8.50;99.90;;;;;;5109388;28;20085;-64
2023/03/13 02:15:47;;;;;;;23.20;6.28;;;8.50;99.90;;;;;;5110031;28;20048;-64
2023/03/13 02:18:15;;;;;;;26.38;6.25;;;8.40;99.90;;;;;;5112445;28;20051;-63
2023/03/13 02:20:42;;;;;;;25.20;6.93;;;8.40;99.90;;;;;;5110827;28;20056;-63
2023/03/13 02:23:18;;;;;;;24.10;7.10;;;8.40;99.90;;;;;;5112812;28;20051;-63
2023/03/13 02:25:48;;;;;;;27.90;6.88;;;8.40;99.90;;;;;;5110900;28;20051;-63
2023/03/13 02:28:19;;;;;;;24.30;7.78;;;8.40;99.90;;;;;;5112185;28;20044;-62
2023/03/13 02:30:49;;;;;;;24.73;6.55;;;8.40;99.90;;;;;;5112386;28;20058;-63
2023/03/13 02:33:18;;;;;;;17.50;5.88;;;8.30;99.90;;;;;;5113915;28;20043;-64
2023/03/13 02:35:46;;;;;;;22.98;6.45;;;8.30;99.90;;;;;;5116458;28;20051;-64
2023/03/13 02:38:18;;;;;;;18.92;6.28;;;8.30;99.90;;;;;;5116042;28;20039;-63
2023/03/13 02:40:49;;;;;;;24.80;7.07;;;8.30;99.90;;;;;;5115699;28;20104;-63
2023/03/13 02:43:20;;;;;;;20.73;6.22;;;8.30;99.90;;;;;;5116565;28;20056;-63
2023/03/13 02:46:02;;;;;;;23.05;6.35;;;8.30;99.90;;;;;;5116380;28;20043;-63
2023/03/13 02:48:33;;;;;;;12.98;4.93;;;8.30;99.90;;;;;;5115449;28;20051;-63
2023/03/13 02:51:02;;;;;;;15.70;6.55;;;8.40;99.90;;;;;;5114776;28;20071;-63
2023/03/13 02:53:29;;;;;;;15.20;5.00;;;8.40;99.90;;;;;;5113746;28;20039;-63
2023/03/13 02:55:57;;;;;;;15.02;5.18;;;8.40;99.90;;;;;;5114165;28;20051;-63
2023/03/13 02:58:24;;;;;;;15.18;4.93;;;8.40;99.90;;;;;;5113995;28;20100;-63
2023/03/13 03:00:52;;;;;;;11.30;5.18;;;8.40;99.90;;;;;;5114183;28;20134;-63
2023/03/13 03:03:19;;;;;;;11.32;5.47;;;8.50;99.90;;;;;;5114828;28;20116;-63
2023/03/13 03:05:46;;;;;;;12.25;5.72;;;8.50;99.90;;;;;;5115549;28;20067;-63
2023/03/13 03:08:13;;;;;;;10.15;4.82;;;8.60;99.90;;;;;;5115288;28;20453;-63
2023/03/13 03:10:39;;;;;;;11.23;4.72;;;8.60;99.90;;;;;;5115791;28;20054;-63
2023/03/13 03:13:08;;;;;;;15.38;5.13;;;8.50;99.90;;;;;;5114550;28;20051;-63
2023/03/13 03:15:35;;;;;;;9.02;4.65;;;8.60;99.90;;;;;;5115051;28;20478;-63
2023/03/13 03:18:02;;;;;;;10.88;4.30;;;8.60;99.90;;;;;;5114291;28;20043;-65
2023/03/13 03:20:28;;;;;;;10.55;4.45;;;8.60;99.90;;;;;;5114349;28;20051;-67
2023/03/13 03:22:55;;;;;;;8.82;4.28;;;8.70;99.90;;;;;;5113970;28;20043;-63
2023/03/13 03:25:22;;;;;;;14.15;4.28;;;8.70;99.90;;;;;;5114462;28;20056;-63
2023/03/13 03:27:49;;;;;;;6.68;4.38;;;8.70;99.90;;;;;;5115296;28;20530;-62
2023/03/13 03:30:18;;;;;;;10.80;3.72;;;8.70;99.90;;;;;;5114606;28;20499;-62
2023/03/13 03:32:45;;;;;;;5.63;3.42;;;8.70;99.90;;;;;;5115298;28;20051;-64
2023/03/13 03:35:12;;;;;;;7.30;3.28;;;8.80;99.90;;;;;;5114040;28;20052;-63
2023/03/13 03:37:39;;;;;;;7.70;2.95;;;8.80;99.90;;;;;;5114636;28;20047;-63
2023/03/13 03:40:07;;;;;;;6.88;3.70;;;8.80;99.90;;;;;;5114967;28;20453;-63
2023/03/13 03:42:34;;;;;;;7.93;3.80;;;8.90;99.90;;;;;;5115170;28;20411;-63
2023/03/13 03:45:00;;;;;;;8.80;3.70;;;8.90;99.90;;;;;;5113825;28;20043;-63
2023/03/13 03:47:29;;;;;;;8.75;3.72;;;8.90;99.90;;;;;;5113908;28;20100;-63
2023/03/13 03:49:56;;;;;;;8.18;3.88;;;8.90;99.90;;;;;;5113469;28;20092;-63
2023/03/13 03:52:22;;;;;;;7.05;3.25;;;9.00;99.90;;;;;;5113372;28;20055;-63
2023/03/13 03:54:49;;;;;;;5.25;3.60;;;9.00;99.90;;;;;;5114930;28;20046;-64
2023/03/13 03:57:16;;;;;;;6.05;3.40;;;9.00;99.90;;;;;;5113167;28;20092;-64
2023/03/13 03:59:43;;;;;;;5.03;2.80;;;9.00;99.90;;;;;;5113614;28;20059;-64
2023/03/13 04:02:10;;;;;;;5.30;3.50;;;9.10;99.90;;;;;;5113371;28;20048;-64
2023/03/13 04:04:38;;;;;;;5.03;2.95;;;9.20;99.90;;;;;;5113890;28;20522;-63
2023/03/13 04:07:05;;;;;;;6.35;3.10;;;9.20;99.90;;;;;;5111269;28;20051;-64
2023/03/13 04:09:32;;;;;;;7.65;3.40;;;9.30;99.90;;;;;;5114402;28;20051;-64
2023/03/13 04:11:59;;;;;;;4.65;2.60;;;9.30;99.90;;;;;;5113971;28;20048;-64
2023/03/13 04:14:26;;;;;;;5.47;3.38;;;9.20;99.90;;;;;;5114191;28;20039;-64
2023/03/13 04:16:53;;;;;;;5.65;3.05;;;9.30;99.90;;;;;;5113442;28;20388;-64
2023/03/13 04:19:20;;;;;;;6.63;3.45;;;9.40;99.90;;;;;;5113563;28;20043;-64
2023/03/13 04:21:48;;;;;;;4.53;3.00;;;9.30;99.90;;;;;;5113452;28;20097;-64
2023/03/13 04:24:15;;;;;;;4.82;3.30;;;9.40;99.90;;;;;;5114231;28;21395;-64
2023/03/13 04:26:42;;;;;;;7.00;4.18;;;9.50;99.90;;;;;;5112527;28;20055;-63
2023/03/13 04:29:08;;;;;;;5.45;3.95;;;9.50;99.90;;;;;;5112838;28;20044;-63
2023/03/13 04:31:35;;;;;;;8.10;4.63;;;9.60;99.90;;;;;;5114222;28;20054;-63
2023/03/13 04:34:03;;;;;;;8.30;4.70;;;9.70;99.90;;;;;;5113305;28;20530;-63
2023/03/13 04:36:30;;;;;;;6.20;4.93;;;9.70;99.90;;;;;;5112939;28;20051;-63
2023/03/13 04:38:58;;;;;;;9.07;5.00;;;9.80;99.90;;;;;;5112933;28;20059;-63
2023/03/13 04:41:25;;;;;;;9.65;5.93;;;9.80;99.90;;;;;;5113381;28;20471;-63
2023/03/13 04:43:51;;;;;;;7.50;5.10;;;9.90;99.90;;;;;;5112574;28;20043;-63
2023/03/13 04:46:18;;;;;;;9.35;5.75;;;9.90;99.90;;;;;;5113282;28;20088;-63
2023/03/13 04:48:46;;;;;;;9.80;5.78;;;9.90;99.90;;;;;;5113748;28;20084;-63
2023/03/13 04:51:13;;;;;;;12.65;6.68;;;10.00;99.90;;;;;;5113572;28;20050;-63
2023/03/13 04:53:40;;;;;;;11.13;7.07;;;10.10;99.90;;;;;;5113269;28;20050;-63
2023/03/13 04:56:08;;;;;;;11.65;7.05;;;10.10;99.90;;;;;;5112476;28;20499;-63
2023/03/13 04:58:35;;;;;;;13.90;7.97;;;10.20;99.90;;;;;;5112461;28;20055;-63
2023/03/13 05:01:02;;;;;;;12.10;6.65;;;10.20;99.90;;;;;;5113022;28;20100;-63
2023/03/13 05:03:29;;;;;;;12.45;6.53;;;10.20;99.90;;;;;;5112489;28;20564;-63
2023/03/13 05:05:56;;;;;;;13.63;7.28;;;10.20;99.90;;;;;;5113554;28;20435;-63
2023/03/13 05:08:23;;;;;;;8.32;6.10;;;10.30;99.90;;;;;;5111669;28;20055;-63
2023/03/13 05:10:50;;;;;;;8.68;5.22;;;10.30;99.90;;;;;;5113339;28;20445;-63
2023/03/13 05:13:18;;;;;;;12.15;5.93;;;10.30;99.90;;;;;;5112254;28;20047;-63
2023/03/13 05:15:45;;;;;;;14.40;5.88;;;10.40;99.90;;;;;;5112875;28;20118;-63
2023/03/13 05:18:12;;;;;;;11.68;6.65;;;10.50;99.90;;;;;;5112040;28;20100;-63
2023/03/13 05:20:39;;;;;;;15.52;6.55;;;10.50;99.90;;;;;;5113148;28;20079;-63
2023/03/13 05:23:06;;;;;;;16.38;6.60;;;10.50;99.90;;;;;;5111608;28;20040;-63
2023/03/13 05:25:33;;;;;;;15.70;5.55;;;10.60;99.90;;;;;;5111973;28;20040;-63
2023/03/13 05:28:00;;;;;;;8.63;5.25;;;10.60;99.90;;;;;;5112979;28;20081;-63
2023/03/13 05:30:28;;;;;;;13.02;5.53;;;10.70;99.90;;;;;;5111325;28;20108;-62
2023/03/13 05:32:55;;;;;;;12.10;5.15;;;10.70;99.90;;;;;;5113241;28;20112;-63
2023/03/13 05:35:22;;;;;;;11.35;4.10;;;10.70;99.90;;;;;;5111487;28;20043;-63
2023/03/13 05:37:49;;;;;;;9.38;4.40;;;10.70;99.90;;;;;;5111395;28;20047;-63
2023/03/13 05:40:16;;;;;;;11.02;4.43;;;10.80;99.90;;;;;;5111632;28;20773;-64
2023/03/13 05:42:43;;;;;;;11.32;4.65;;;10.80;99.90;;;;;;5105704;28;20419;-63
2023/03/13 05:45:11;;;;;;;8.82;4.18;;;10.80;99.90;;;;;;5111924;28;20058;-63
2023/03/13 05:47:40;;;;;;;11.20;4.95;;;10.80;99.90;;;;;;5111976;28;20056;-63
2023/03/13 05:50:08;;;;;;;11.25;5.15;;;10.70;99.90;;;;;;5110368;28;20097;-63
2023/03/13 05:52:35;;;;;;;9.85;5.28;;;10.80;99.90;;;;;;5111514;28;20047;-64
2023/03/13 05:55:02;;;;;;;17.48;5.55;;;10.90;99.90;;;;;;5112058;28;20047;-63
2023/03/13 05:57:29;;;;;;;7.95;4.93;;;10.80;99.90;;;;;;5109458;28;20047;-63
2023/03/13 05:59:56;;;;;;;11.48;5.03;;;10.80;99.90;;;;;;5110689;28;20063;-63
2023/03/13 06:02:23;;;;;;;11.40;4.50;;;10.80;99.90;;;;;;5110184;28;20059;-62
2023/03/13 06:04:51;;;;;;;12.82;4.70;;;10.80;99.90;;;;;;5109555;28;20058;-63
2023/03/13 06:07:18;;;;;;;13.15;4.95;;;10.80;99.90;;;;;;5109527;28;20051;-63
2023/03/13 06:09:45;;;;;;;13.63;5.32;;;10.80;99.90;;;;;;5111594;28;20416;-62
2023/03/13 06:12:12;;;;;;;10.63;3.92;;;10.80;99.90;;;;;;5110791;28;20047;-62
2023/03/13 06:14:39;;;;;;;11.43;4.38;;;10.80;99.90;;;;;;5109852;28;20044;-62
2023/03/13 06:17:06;;;;;;;11.82;5.30;;;10.80;99.90;;;;;;5111003;28;20047;-63
2023/03/13 06:19:33;;;;;;;10.65;5.00;;;10.70;99.90;;;;;;5109202;28;20088;-63
2023/03/13 06:22:01;;;;;;;11.73;5.18;;;10.70;99.90;;;;;;5109631;28;20047;-63
2023/03/13 06:24:28;;;;;;;15.55;5.78;;;10.70;99.90;;;;;;5112179;28;20496;-63
2023/03/13 06:26:55;;;;;;;11.07;5.40;;;11.30;99.90;;;;;;5111068;28;20054;-63
2023/03/13 06:29:23;;;;;;;14.85;4.80;;;10.80;99.90;;;;;;5108274;28;20063;-63
2023/03/13 06:31:50;;;;;;;13.52;5.60;;;10.80;99.90;;;;;;5110420;28;20056;-63
2023/03/13 06:34:18;;;;;;;9.23;5.03;;;10.70;99.90;;;;;;5109205;28;20119;-63
2023/03/13 06:36:45;;;;;;;17.70;4.53;;;10.80;99.90;;;;;;5110791;28;20058;-63
2023/03/13 06:39:13;;;;;;;13.00;4.93;;;10.80;99.90;;;;;;5110819;28;20073;-63
2023/03/13 06:41:40;;;;;;;9.30;4.82;;;10.70;99.90;;;;;;5109704;28;20457;-64
2023/03/13 06:44:07;;;;;;;8.18;4.75;;;10.80;99.90;;;;;;5111192;28;20039;-64
2023/03/13 06:46:34;;;;;;;10.13;5.65;;;10.80;99.90;;;;;;5108974;28;20100;-63
2023/03/13 06:49:03;;;;;;;10.90;5.13;;;10.80;99.90;;;;;;5110135;28;20483;-65
2023/03/13 06:51:30;;;;;;;11.75;5.03;;;10.90;99.90;;;;;;5109868;28;20075;-65
2023/03/13 06:53:57;;;;;;;12.88;5.10;;;10.90;99.90;;;;;;5108997;28;20043;-65
2023/03/13 06:56:26;;;;;;;12.48;4.85;;;10.90;99.90;;;;;;5109390;28;20101;-63
2023/03/13 06:58:52;;;;;;;11.40;4.75;;;10.90;99.90;;;;;;5109440;28;20043;-64
2023/03/13 07:01:19;;;;;;;10.57;4.70;;;11.00;99.90;;;;;;5109951;28;20071;-65
2023/03/13 07:03:48;;;;;;;17.38;5.53;;;10.90;99.90;;;;;;5111073;28;20101;-64
2023/03/13 07:06:16;;;;;;;12.13;5.53;;;11.00;99.90;;;;;;5109461;28;20138;-63
2023/03/13 07:08:43;;;;;;;10.02;5.28;;;11.00;99.90;;;;;;5107750;28;20051;-63
2023/03/13 07:11:12;;;;;;;13.95;5.22;;;11.00;99.90;;;;;;5109573;28;20113;-63
2023/03/13 07:13:40;;;;;;;11.35;5.10;;;11.00;99.90;;;;;;5110822;28;20113;-63
2023/03/13 07:16:09;;;;;;;15.13;5.03;;;11.00;99.90;;;;;;5107843;28;20048;-63
2023/03/13 07:18:37;;;;;;;21.25;5.53;;;11.10;99.90;;;;;;5111424;28;20058;-64
2023/03/13 07:21:05;;;;;;;12.20;5.28;;;11.10;99.90;;;;;;5113398;28;20044;-64
2023/03/13 07:23:32;;;;;;;9.77;4.00;;;11.10;99.90;;;;;;5114794;28;20044;-64
2023/03/13 07:26:01;;;;;;;11.85;4.38;;;11.10;99.90;;;;;;5113525;28;20054;-64
2023/03/13 07:28:30;;;;;;;13.13;4.95;;;11.10;99.90;;;;;;5112917;28;20090;-64
2023/03/13 07:31:05;;;;;;;8.73;3.88;;;11.20;99.90;;;;;;5114932;28;20083;-64
2023/03/13 07:33:32;;;;;;;12.93;4.28;;;11.20;99.90;;;;;;5113500;28;20059;-64
2023/03/13 07:35:59;;;;;;;11.07;4.55;;;11.20;99.90;;;;;;5114025;28;20048;-64
2023/03/13 07:38:26;;;;;;;12.90;4.32;;;11.20;99.90;;;;;;5114537;28;20097;-64
2023/03/13 07:40:54;;;;;;;8.15;4.03;;;11.20;99.90;;;;;;5113249;28;20047;-64
2023/03/13 07:43:23;;;;;;;12.23;4.32;;;11.10;99.90;;;;;;5112783;28;20073;-64
2023/03/13 07:45:51;;;;;;;12.45;4.68;;;11.20;99.90;;;;;;5113008;28;20062;-64
2023/03/13 07:48:20;;;;;;;7.32;3.67;;;11.10;99.90;;;;;;5112645;28;20071;-64
2023/03/13 07:50:47;;;;;;;11.77;5.20;;;11.10;99.90;;;;;;5113980;28;20062;-64
2023/03/13 07:53:19;;;;;;;12.25;4.97;;;11.00;99.90;;;;;;5113946;28;20101;-64
2023/03/13 07:55:55;;;;;;;8.70;3.85;;;11.00;99.90;;;;;;5113069;28;20428;-64
2023/03/13 07:58:23;;;;;;;11.00;4.57;;;10.90;99.90;;;;;;5113736;28;20047;-64
2023/03/13 08:00:50;;;;;;;9.80;4.20;;;11.00;99.90;;;;;;5114302;28;20056;-64
2023/03/13 08:03:17;;;;;;;9.57;4.35;;;11.00;99.90;;;;;;5112519;28;20445;-64
2023/03/13 08:05:45;;;;;;;12.20;3.85;;;11.00;99.90;;;;;;5112720;28;20074;-64
2023/03/13 08:08:12;;;;;;;10.30;3.50;;;11.00;99.90;;;;;;5112298;28;20062;-64
2023/03/13 08:10:39;;;;;;;9.75;4.03;;;11.00;99.90;;;;;;5113502;28;20112;-64
2023/03/13 08:13:06;;;;;;;9.32;3.60;;;11.00;99.90;;;;;;5112529;28;20039;-67
2023/03/13 08:15:33;;;;;;;7.65;3.10;;;11.00;99.90;;;;;;5114052;28;20096;-67
2023/03/13 08:18:00;;;;;;;15.40;3.72;;;11.20;99.90;;;;;;5113203;28;20051;-67
2023/03/13 08:20:26;;;;;;;8.68;3.13;;;11.30;99.90;;;;;;5112242;28;20047;-67
2023/03/13 08:22:57;;;;;;;9.70;3.10;;;11.40;99.90;;;;;;5112312;28;20047;-67
2023/03/13 08:25:24;;;;;;;7.78;3.30;;;11.50;99.90;;;;;;5115657;28;20051;-67
2023/03/13 08:27:51;;;;;;;5.30;2.72;;;11.70;99.90;;;;;;5118799;28;20048;-67
2023/03/13 08:30:18;;;;;;;10.00;3.03;;;12.00;99.90;;;;;;5114907;28;20043;-68
2023/03/13 08:32:45;;;;;;;5.97;2.60;;;12.80;99.90;;;;;;5111466;28;20165;-68
2023/03/13 08:35:12;;;;;;;10.82;3.15;;;13.10;99.90;;;;;;5112201;28;20483;-67
2023/03/13 08:37:39;;;;;;;9.55;2.45;;;13.30;99.90;;;;;;5111604;28;20043;-67
2023/03/13 08:40:10;;;;;;;7.95;2.35;;;13.60;99.90;;;;;;5112249;28;20040;-67
2023/03/13 08:42:39;;;;;;;5.13;2.10;;;14.30;99.90;;;;;;5111870;28;20518;-67
2023/03/13 08:45:07;;;;;;;4.43;2.42;;;15.30;99.90;;;;;;5113559;28;20046;-67
2023/03/13 08:47:34;;;;;;;15.10;2.00;;;15.70;99.90;;;;;;5112981;28;20495;-69
2023/03/13 08:50:01;;;;;;;4.05;1.83;;;16.00;99.90;;;;;;5111435;28;20039;-67
2023/03/13 08:52:28;;;;;;;4.22;1.65;;;16.70;99.90;;;;;;5113548;28;20127;-67
2023/03/13 08:54:55;;;;;;;7.15;1.75;;;16.70;99.90;;;;;;5112812;28;20085;-67
2023/03/13 08:57:23;;;;;;;7.38;2.13;;;16.90;99.90;;;;;;5112493;28;20512;-68
2023/03/13 08:59:51;;;;;;;6.15;1.92;;;17.00;99.90;;;;;;5110755;28;20039;-68
2023/03/13 09:02:19;;;;;;;6.07;2.00;;;16.50;99.90;;;;;;5113856;28;20112;-68
2023/03/13 09:04:48;;;;;;;5.18;1.60;;;16.60;99.90;;;;;;5112072;28;20044;-68
2023/03/13 09:07:15;;;;;;;16.48;2.10;;;16.90;99.90;;;;;;5110875;28;20123;-68
2023/03/13 09:09:43;;;;;;;6.20;2.03;;;17.10;99.90;;;;;;5111689;28;20055;-67
2023/03/13 09:12:10;;;;;;;5.00;1.42;;;16.70;99.90;;;;;;5109024;28;20043;-68
2023/03/13 09:14:39;;;;;;;8.77;1.60;;;15.90;99.90;;;;;;5111167;28;20051;-68
2023/03/13 09:17:06;;;;;;;3.53;1.55;;;14.90;99.90;;;;;;5109702;28;20051;-66
2023/03/13 09:19:33;;;;;;;8.13;1.88;;;14.40;99.90;;;;;;5107971;28;20100;-68
2023/03/13 09:22:00;;;;;;;9.75;2.00;;;14.10;99.90;;;;;;5110519;28;20072;-67
2023/03/13 09:24:27;;;;;;;8.18;2.72;;;13.80;99.90;;;;;;5111357;28;20537;-67
2023/03/13 09:26:54;;;;;;;11.52;2.42;;;13.70;99.90;;;;;;5112436;28;20407;-66
2023/03/13 09:29:21;;;;;;;5.85;1.75;;;13.50;99.90;;;;;;5108321;28;20062;-66
2023/03/13 09:31:49;;;;;;;9.93;2.78;;;13.50;99.90;;;;;;5112199;28;20060;-67
2023/03/13 09:34:16;;;;;;;9.48;2.28;;;13.40;99.90;;;;;;5107442;28;20690;-67
2023/03/13 09:36:43;;;;;;;8.27;2.65;;;13.20;99.90;;;;;;5111306;28;20051;-67
2023/03/13 09:39:10;;;;;;;7.22;3.25;;;13.10;99.90;;;;;;5110306;28;20039;-66
2023/03/13 09:41:42;;;;;;;8.85;2.53;;;13.10;99.90;;;;;;5111658;27;20109;-67
2023/03/13 09:44:15;;;;;;;15.27;3.45;;;12.90;99.90;;;;;;5109364;28;20051;-68
2023/03/13 09:46:48;;;;;;;13.95;2.85;;;13.00;99.90;;;;;;5110700;28;20537;-68
2023/03/13 09:49:29;;;;;;;9.77;2.70;;;13.00;99.90;;;;;;5107095;28;20047;-67
2023/03/13 09:52:04;;;;;;;7.82;3.03;;;13.30;99.90;;;;;;5111557;28;20130;-67
2023/03/13 09:54:38;;;;;;;6.53;2.45;;;13.40;99.90;;;;;;5110651;28;20100;-68
2023/03/13 09:57:13;;;;;;;19.23;3.47;;;13.40;99.90;;;;;;5111574;28;20039;-68
2023/03/13 09:59:47;;;;;;;9.80;2.90;;;13.30;99.90;;;;;;5110322;28;20087;-67
2023/03/13 10:02:29;;;;;;;8.60;2.50;;;13.40;99.90;;;;;;5111767;28;20050;-67
2023/03/13 10:05:13;;;;;;;7.10;2.88;;;14.00;99.90;;;;;;5110196;28;20051;-67
2023/03/13 10:07:41;;;;;;;8.55;2.63;;;14.70;99.90;;;;;;5109767;28;20043;-67
2023/03/13 10:10:14;;;;;;;9.45;3.13;;;15.70;99.90;;;;;;5111094;28;20411;-67
2023/03/13 10:12:44;;;;;;;9.07;2.58;;;16.60;99.90;;;;;;5110297;28;20507;-67
2023/03/13 10:15:39;;;;;;;10.55;2.95;;;17.50;99.90;;;;;;5110049;28;20044;-67
2023/03/13 10:18:16;;;;;;;19.92;3.28;;;18.30;99.90;;;;;;5109778;28;20047;-67
2023/03/13 10:20:47;;;;;;;10.18;3.95;;;17.60;99.90;;;;;;5111693;28;20123;-68
2023/03/13 10:23:18;;;;;;;9.93;3.42;;;17.80;99.90;;;;;;5108643;28;20075;-67
2023/03/13 10:25:45;;;;;;;15.65;3.45;;;18.70;99.90;;;;;;5116179;28;20043;-67
2023/03/13 10:28:14;;;;;;;39.83;3.90;;;18.60;99.90;;;;;;5121010;28;20081;-67
2023/03/13 10:30:46;;;;;;;12.90;3.13;;;18.30;99.90;;;;;;5118309;28;20104;-68
2023/03/13 10:33:21;;;;;;;13.70;3.58;;;18.00;99.90;;;;;;5111386;28;20051;-68
2023/03/13 10:36:01;;;;;;;16.63;3.65;;;17.50;99.90;;;;;;5110248;28;20047;-68
2023/03/13 10:38:28;;;;;;;36.22;5.00;;;17.30;99.90;;;;;;5107511;28;20043;-68
2023/03/13 10:40:59;;;;;;;13.10;3.60;;;17.00;99.90;;;;;;5111628;28;20495;-68
2023/03/13 10:43:27;;;;;;;18.08;4.72;;;17.20;99.90;;;;;;5109518;28;20040;-67
2023/03/13 10:45:54;;;;;;;21.98;3.28;;;17.00;99.90;;;;;;5110664;28;20050;-67
2023/03/13 10:48:23;;;;;;;18.52;4.38;;;16.50;99.90;;;;;;5111153;28;20044;-67
2023/03/13 10:50:56;;;;;;;9.30;2.90;;;16.80;99.90;;;;;;5111053;28;20488;-67
2023/03/13 10:53:26;;;;;;;13.43;3.47;;;16.40;99.90;;;;;;5110781;28;20096;-67
2023/03/13 10:55:54;;;;;;;16.30;4.13;;;16.00;99.90;;;;;;5113748;28;20043;-67
2023/03/13 10:58:27;;;;;;;11.90;3.33;;;15.80;99.90;;;;;;5114019;28;20395;-68
2023/03/13 11:01:21;;;;;;;12.27;3.30;;;16.00;99.90;;;;;;5114419;28;20059;-68
2023/03/13 11:03:49;;;;;;;10.30;2.85;;;16.80;99.90;;;;;;5114127;28;20418;-68
2023/03/13 11:06:26;;;;;;;16.38;3.83;;;17.70;99.90;;;;;;5112630;28;20380;-68
2023/03/13 11:08:59;;;;;;;13.82;3.17;;;17.70;99.90;;;;;;5113054;28;20054;-68
2023/03/13 11:11:29;;;;;;;15.13;3.40;;;16.40;99.90;;;;;;5114864;28;20047;-68
2023/03/13 11:14:09;;;;;;;14.15;3.92;;;16.20;99.90;;;;;;5113258;28;20108;-67
2023/03/13 11:16:45;;;;;;;12.45;4.10;;;15.80;99.90;;;;;;5113601;28;20134;-67
2023/03/13 11:19:42;;;;;;;10.02;3.05;;;16.30;99.90;;;;;;5113878;28;20280;-68
2023/03/13 11:22:27;;;;;;;20.50;3.47;;;16.00;99.90;;;;;;5112884;28;20088;-68
2023/03/13 11:25:03;;;;;;;9.07;3.42;;;15.70;99.90;;;;;;5114503;28;20052;-68
2023/03/13 11:27:35;;;;;;;13.27;3.47;;;15.80;99.90;;;;;;5113150;28;21323;-68
2023/03/13 11:30:15;;;;;;;17.90;3.33;;;16.10;99.90;;;;;;5113537;28;20054;-68
2023/03/13 11:32:46;;;;;;;8.55;3.05;;;16.10;99.90;;;;;;5114189;28;20043;-68
2023/03/13 11:35:22;;;;;;;10.50;3.33;;;15.90;99.90;;;;;;5113089;28;20046;-68
2023/03/13 11:37:55;;;;;;;40.17;4.65;;;15.70;99.90;;;;;;5113539;28;20051;-67
2023/03/13 11:40:29;;;;;;;16.48;4.03;;;15.40;99.90;;;;;;5112677;28;20054;-68
2023/03/13 11:43:14;;;;;;;8.98;3.35;;;15.20;99.90;;;;;;5111367;28;20101;-67
2023/03/13 11:45:59;;;;;;;9.23;2.67;;;15.00;99.90;;;;;;5114533;28;20078;-68
2023/03/13 11:48:50;;;;;;;15.05;3.15;;;15.10;99.90;;;;;;5112858;28;20048;-67
2023/03/13 11:51:24;;;;;;;11.93;2.65;;;15.00;99.90;;;;;;5111221;28;20538;-67
2023/03/13 11:54:10;;;;;;;7.28;2.53;;;15.10;99.90;;;;;;5113996;28;20104;-68
2023/03/13 11:56:42;;;;;;;10.52;2.92;;;15.20;99.90;;;;;;5112316;28;20051;-67
2023/03/13 11:59:31;;;;;;;13.18;2.80;;;15.20;99.90;;;;;;5112817;28;20457;-67
2023/03/13 12:02:04;;;;;;;11.43;2.85;;;15.50;99.90;;;;;;5110982;28;20096;-68
2023/03/13 12:04:35;;;;;;;16.00;3.42;;;15.70;99.90;;;;;;5112789;28;20052;-67
2023/03/13 12:07:06;;;;;;;9.70;2.75;;;15.80;99.90;;;;;;5113258;28;20044;-67
2023/03/13 12:09:40;;;;;;;11.88;2.92;;;15.90;99.90;;;;;;5112853;28;20047;-67
2023/03/13 12:12:18;;;;;;;8.40;2.80;;;15.50;99.90;;;;;;5112053;28;20044;-67
2023/03/13 12:14:48;;;;;;;11.63;3.00;;;15.90;99.90;;;;;;5112720;28;20047;-68
2023/03/13 12:17:31;;;;;;;45.35;4.22;;;16.30;99.90;;;;;;5113332;28;20399;-68
2023/03/13 12:20:06;;;;;;;9.40;2.95;;;15.90;99.90;;;;;;5112680;28;20047;-68
2023/03/13 12:22:38;;;;;;;13.30;3.42;;;15.80;99.90;;;;;;5112066;28;20051;-67
2023/03/13 12:25:13;;;;;;;10.35;3.20;;;15.80;99.90;;;;;;5144563;27;20134;-67
2023/03/13 12:27:45;;;;;;;12.85;2.90;;;16.20;99.90;;;;;;5110486;28;20072;-67
2023/03/13 12:30:22;;;;;;;17.17;3.40;;;17.00;99.90;;;;;;5112053;28;20051;-68
2023/03/13 12:32:58;;;;;;;15.65;4.10;;;17.20;99.90;;;;;;5112851;28;20460;-68
2023/03/13 12:35:28;;;;;;;15.98;3.90;;;17.30;99.90;;;;;;5112100;28;20055;-67
2023/03/13 12:38:01;;;;;;;8.90;3.35;;;17.30;99.90;;;;;;5112898;28;20491;-68
2023/03/13 12:40:34;;;;;;;10.45;3.20;;;17.60;99.90;;;;;;5111824;28;20396;-67
2023/03/13 12:43:06;;;;;;;16.50;3.38;;;16.90;99.90;;;;;;5109727;28;20043;-67
2023/03/13 12:45:36;;;;;;;24.55;3.65;;;17.60;99.90;;;;;;5112125;28;20047;-68
2023/03/13 12:48:17;;;;;;;;;;;17.60;99.90;;;;;;5113511;28;20407;-67
2023/03/13 12:50:56;;;;;;;33.50;5.60;;;17.80;99.90;;;;;;5112333;28;19942;-67
2023/03/13 12:53:46;;;;;;;33.80;4.35;;;17.60;99.90;;;;;;5111450;28;20123;-68
2023/03/13 12:56:43;;;;;;;8.05;2.92;;;18.00;99.90;;;;;;5110615;28;20044;-67